createdAt,value
2022-12-11T00:01:14.660Z,3.63
2022-12-11T00:03:42.587Z,3.58
2022-12-11T00:06:12.713Z,3.57
2022-12-11T00:08:40.836Z,3.54
2022-12-11T00:11:16.473Z,3.51
2022-12-11T00:13:44.496Z,3.45
2022-12-11T00:16:13.586Z,3.44
2022-12-11T00:18:41.475Z,3.39
2022-12-11T00:21:17.405Z,3.35
2022-12-11T00:23:44.888Z,3.32
2022-12-11T00:26:17.295Z,3.30
2022-12-11T00:28:50.862Z,3.26
2022-12-11T00:31:19.666Z,3.24
2022-12-11T00:33:49.095Z,3.23
2022-12-11T00:36:20.407Z,3.20
2022-12-11T00:38:49.667Z,3.18
2022-12-11T00:41:17.948Z,3.12
2022-12-11T00:43:47.669Z,3.09
2022-12-11T00:46:15.466Z,3.09
2022-12-11T00:48:45.389Z,3.07
2022-12-11T00:51:15.718Z,3.07
2022-12-11T00:53:43.410Z,3.05
2022-12-11T00:56:16.992Z,3.04
2022-12-11T00:58:44.652Z,3.01
2022-12-11T01:01:16.839Z,3.00
2022-12-11T01:03:48.365Z,3.00
2022-12-11T01:06:18.012Z,2.99
2022-12-11T01:08:46.422Z,2.97
2022-12-11T01:11:15.980Z,2.98
2022-12-11T01:13:43.916Z,2.94
2022-12-11T01:16:16.566Z,2.96
2022-12-11T01:18:44.167Z,2.94
2022-12-11T01:21:15.820Z,2.93
2022-12-11T01:23:43.421Z,2.93
2022-12-11T01:26:13.338Z,2.92
2022-12-11T01:28:41.541Z,2.92
2022-12-11T01:31:15.133Z,2.92
2022-12-11T01:33:42.702Z,2.88
2022-12-11T01:36:21.514Z,2.87
2022-12-11T01:38:50.347Z,2.84
2022-12-11T01:41:20.399Z,2.83
2022-12-11T01:44:08.896Z,2.80
2022-12-11T01:46:39.723Z,2.79
2022-12-11T01:49:10.899Z,2.77
2022-12-11T01:51:47.255Z,2.74
2022-12-11T01:54:17.477Z,2.72
2022-12-11T01:56:47.149Z,2.70
2022-12-11T01:59:20.096Z,2.71
2022-12-11T02:01:55.419Z,2.68
2022-12-11T02:04:23.765Z,2.65
2022-12-11T02:06:52.884Z,2.64
2022-12-11T02:09:28.027Z,2.63
2022-12-11T02:12:11.733Z,2.59
2022-12-11T02:14:58.208Z,2.54
2022-12-11T02:17:49.898Z,2.47
2022-12-11T02:20:23.212Z,2.41
2022-12-11T02:23:28.349Z,2.39
2022-12-11T02:26:08.884Z,2.34
2022-12-11T02:28:44.724Z,2.28
2022-12-11T02:31:23.004Z,2.22
2022-12-11T02:34:00.049Z,2.17
2022-12-11T02:36:32.381Z,2.13
2022-12-11T02:39:04.600Z,2.12
2022-12-11T02:41:35.388Z,2.08
2022-12-11T02:44:04.234Z,2.06
2022-12-11T02:46:37.064Z,2.01
2022-12-11T02:49:10.932Z,1.99
2022-12-11T02:51:45.493Z,1.98
2022-12-11T02:54:22.009Z,1.94
2022-12-11T02:56:58.609Z,1.91
2022-12-11T02:59:33.012Z,1.84
2022-12-11T03:02:00.629Z,1.81
2022-12-11T03:04:28.208Z,1.72
2022-12-11T03:06:59.999Z,1.73
2022-12-11T03:09:29.363Z,1.72
2022-12-11T03:11:59.127Z,1.69
2022-12-11T03:14:26.648Z,1.66
2022-12-11T03:17:06.146Z,1.66
2022-12-11T03:19:39.504Z,1.63
2022-12-11T03:22:44.881Z,1.60
2022-12-11T03:25:21.112Z,1.55
2022-12-11T03:27:59.550Z,1.53
2022-12-11T03:30:30.010Z,1.51
2022-12-11T03:33:04.042Z,1.49
2022-12-11T03:35:40.028Z,1.48
2022-12-11T03:38:12.735Z,1.49
2022-12-11T03:40:46.936Z,1.49
2022-12-11T03:43:16.192Z,1.49
2022-12-11T03:45:46.615Z,1.46
2022-12-11T03:48:15.925Z,1.43
2022-12-11T03:50:44.631Z,1.40
2022-12-11T03:53:13.926Z,1.38
2022-12-11T03:55:42.625Z,1.37
2022-12-11T03:58:10.204Z,1.40
2022-12-11T04:00:38.106Z,1.39
2022-12-11T04:03:14.617Z,1.39
2022-12-11T04:05:50.028Z,1.39
2022-12-11T04:08:18.902Z,1.39
2022-12-11T04:10:46.533Z,1.39
2022-12-11T04:13:19.071Z,1.39
2022-12-11T04:15:45.698Z,1.40
2022-12-11T04:18:30.992Z,1.39
2022-12-11T04:21:18.601Z,1.35
2022-12-11T04:24:03.526Z,1.35
2022-12-11T04:26:31.097Z,1.33
2022-12-11T04:28:58.601Z,1.34
2022-12-11T04:31:26.516Z,1.30
2022-12-11T04:33:54.064Z,1.30
2022-12-11T04:36:24.061Z,1.29
2022-12-11T04:38:54.213Z,1.28
2022-12-11T04:41:21.793Z,1.27
2022-12-11T04:43:49.332Z,1.30
2022-12-11T04:46:20.524Z,1.27
2022-12-11T04:48:52.417Z,1.29
2022-12-11T04:51:23.572Z,1.26
2022-12-11T04:53:51.129Z,1.26
2022-12-11T04:56:18.615Z,1.26
2022-12-11T04:58:47.206Z,1.26
2022-12-11T05:01:18.714Z,1.26
2022-12-11T05:03:46.392Z,1.26
2022-12-11T05:06:15.205Z,1.28
2022-12-11T05:08:46.305Z,1.27
2022-12-11T05:11:16.294Z,1.27
2022-12-11T05:13:46.941Z,1.28
2022-12-11T05:16:19.265Z,1.28
2022-12-11T05:18:47.444Z,1.30
2022-12-11T05:21:16.252Z,1.27
2022-12-11T05:23:43.840Z,1.27
2022-12-11T05:26:21.221Z,1.29
2022-12-11T05:28:53.253Z,1.27
2022-12-11T05:31:24.357Z,1.28
2022-12-11T05:33:52.338Z,1.27
2022-12-11T05:36:26.106Z,1.28
2022-12-11T05:38:54.309Z,1.27
2022-12-11T05:41:23.926Z,1.27
2022-12-11T05:43:52.136Z,1.24
2022-12-11T05:46:22.622Z,1.24
2022-12-11T05:48:56.060Z,1.23
2022-12-11T05:51:24.193Z,1.23
2022-12-11T05:53:53.356Z,1.19
2022-12-11T05:56:24.029Z,1.22
2022-12-11T05:58:52.027Z,1.97
2022-12-11T06:01:29.150Z,1.47
2022-12-11T06:03:57.692Z,1.37
2022-12-11T06:06:28.408Z,1.30
2022-12-11T06:09:00.112Z,1.24
2022-12-11T06:11:29.966Z,1.22
2022-12-11T06:14:00.380Z,1.22
2022-12-11T06:16:27.998Z,1.22
2022-12-11T06:18:58.199Z,1.22
2022-12-11T06:21:31.346Z,1.21
2022-12-11T06:24:03.566Z,1.21
2022-12-11T06:26:32.054Z,1.22
2022-12-11T06:28:59.773Z,1.22
2022-12-11T06:31:27.427Z,1.24
2022-12-11T06:33:55.378Z,1.23
2022-12-11T06:36:24.929Z,1.22
2022-12-11T06:38:53.056Z,1.25
2022-12-11T06:41:20.618Z,1.26
2022-12-11T06:43:48.198Z,1.20
2022-12-11T06:46:18.979Z,1.23
2022-12-11T06:48:47.277Z,1.19
2022-12-11T06:51:18.233Z,1.17
2022-12-11T06:53:46.838Z,1.18
2022-12-11T06:56:17.994Z,1.17
2022-12-11T06:58:48.226Z,1.15
2022-12-11T07:01:19.315Z,1.18
2022-12-11T07:03:47.300Z,1.16
2022-12-11T07:06:16.002Z,1.16
2022-12-11T07:08:43.592Z,1.19
2022-12-11T07:11:15.749Z,1.22
2022-12-11T07:13:45.109Z,1.27
2022-12-11T07:16:16.641Z,1.27
2022-12-11T07:18:48.715Z,1.30
2022-12-11T07:21:18.160Z,1.35
2022-12-11T07:23:45.780Z,1.36
2022-12-11T07:26:16.046Z,1.38
2022-12-11T07:28:44.639Z,1.40
2022-12-11T07:31:19.237Z,1.44
2022-12-11T07:33:47.120Z,1.45
2022-12-11T07:36:16.245Z,1.46
2022-12-11T07:38:46.381Z,1.49
2022-12-11T07:41:15.902Z,1.52
2022-12-11T07:43:44.014Z,1.55
2022-12-11T07:46:17.187Z,1.60
2022-12-11T07:48:46.964Z,1.62
2022-12-11T07:51:17.970Z,1.64
2022-12-11T07:53:47.971Z,1.65
2022-12-11T07:56:16.663Z,1.64
2022-12-11T07:58:44.201Z,1.59
2022-12-11T08:01:22.952Z,1.65
2022-12-11T08:03:51.220Z,1.66
2022-12-11T08:06:21.324Z,1.63
2022-12-11T08:08:49.094Z,1.64
2022-12-11T08:11:16.624Z,1.63
2022-12-11T08:13:46.586Z,1.63
2022-12-11T08:16:16.158Z,1.67
2022-12-11T08:18:47.960Z,1.66
2022-12-11T08:21:28.204Z,1.64
2022-12-11T08:23:56.300Z,1.65
2022-12-11T08:26:26.423Z,1.67
2022-12-11T08:28:54.644Z,1.67
2022-12-11T08:31:27.375Z,1.68
2022-12-11T08:33:57.720Z,1.68
2022-12-11T08:36:26.267Z,1.68
2022-12-11T08:38:55.877Z,1.66
2022-12-11T08:41:28.643Z,1.62
2022-12-11T08:44:01.672Z,1.61
2022-12-11T08:46:32.721Z,1.65
2022-12-11T08:49:00.605Z,1.66
2022-12-11T08:51:34.001Z,1.67
2022-12-11T08:54:02.359Z,1.69
2022-12-11T08:56:30.695Z,1.67
2022-12-11T08:59:04.437Z,1.70
2022-12-11T09:01:32.755Z,1.72
2022-12-11T09:04:00.357Z,1.74
2022-12-11T09:06:30.241Z,1.75
2022-12-11T09:09:01.261Z,1.77
2022-12-11T09:11:33.431Z,1.72
2022-12-11T09:14:07.371Z,1.70
2022-12-11T09:16:39.619Z,1.69
2022-12-11T09:19:09.346Z,1.73
2022-12-11T09:21:36.950Z,1.69
2022-12-11T09:26:50.447Z,1.75
2022-12-11T09:29:18.033Z,1.76
2022-12-11T09:31:46.473Z,1.70
2022-12-11T09:34:15.036Z,1.68
2022-12-11T09:36:44.978Z,1.68
2022-12-11T09:39:16.569Z,1.67
2022-12-11T09:42:08.867Z,1.66
2022-12-11T09:45:01.588Z,1.69
2022-12-11T09:47:37.142Z,1.72
2022-12-11T09:50:10.507Z,1.74
2022-12-11T09:53:02.371Z,1.75
2022-12-11T09:56:02.265Z,1.74
2022-12-11T09:58:57.536Z,1.80
2022-12-11T10:01:51.045Z,1.81
2022-12-11T10:04:54.219Z,1.82
2022-12-11T10:07:27.660Z,1.84
2022-12-11T10:10:08.953Z,1.89
2022-12-11T10:13:01.213Z,1.89
2022-12-11T10:15:40.857Z,1.90
2022-12-11T10:18:16.270Z,1.92
2022-12-11T10:20:45.296Z,1.95
2022-12-11T10:23:35.463Z,1.99
2022-12-11T10:26:21.716Z,1.96
2022-12-11T10:28:49.550Z,1.94
2022-12-11T10:31:17.115Z,1.93
2022-12-11T10:33:57.046Z,1.96
2022-12-11T10:36:39.771Z,1.96
2022-12-11T10:39:16.392Z,1.90
2022-12-11T10:41:46.122Z,1.90
2022-12-11T10:44:16.706Z,1.82
2022-12-11T10:46:45.186Z,1.83
2022-12-11T10:49:29.896Z,1.83
2022-12-11T10:52:01.414Z,1.78
2022-12-11T10:54:47.096Z,1.78
2022-12-11T10:57:16.161Z,1.76
2022-12-11T10:59:49.051Z,1.78
2022-12-11T11:02:33.554Z,1.80
2022-12-11T11:05:14.459Z,1.77
2022-12-11T11:07:42.657Z,1.77
2022-12-11T11:10:13.734Z,1.77
2022-12-11T11:12:47.169Z,1.79
2022-12-11T11:15:23.680Z,1.76
2022-12-11T11:17:57.043Z,1.79
2022-12-11T11:20:28.126Z,1.77
2022-12-11T11:23:01.662Z,1.77
2022-12-11T11:25:34.865Z,1.79
2022-12-11T11:28:09.719Z,1.81
2022-12-11T11:30:40.716Z,1.83
2022-12-11T11:33:22.573Z,1.90
2022-12-11T11:35:59.456Z,1.91
2022-12-11T11:38:54.846Z,1.92
2022-12-11T11:41:28.932Z,1.87
2022-12-11T11:44:00.411Z,1.85
2022-12-11T11:46:39.452Z,1.87
2022-12-11T11:49:42.125Z,1.84
2022-12-11T11:52:47.615Z,1.83
2022-12-11T11:55:22.390Z,1.81
2022-12-11T11:58:09.695Z,1.83
2022-12-11T12:00:37.321Z,1.84
2022-12-11T12:03:15.442Z,1.83
2022-12-11T12:05:46.142Z,1.83
2022-12-11T12:08:22.849Z,1.84
2022-12-11T12:11:22.804Z,1.85
2022-12-11T12:13:57.729Z,1.82
2022-12-11T12:19:27.863Z,1.88
2022-12-11T12:21:55.959Z,1.83
2022-12-11T12:24:45.183Z,1.82
2022-12-11T12:27:51.047Z,1.86
2022-12-11T12:30:21.836Z,1.84
2022-12-11T12:33:28.948Z,1.80
2022-12-11T12:36:22.611Z,1.85
2022-12-11T12:39:03.404Z,1.82
2022-12-11T12:41:52.019Z,1.84
2022-12-11T12:44:23.231Z,1.83
2022-12-11T12:46:51.057Z,1.82
2022-12-11T12:49:48.756Z,1.83
2022-12-11T12:52:37.510Z,1.80
2022-12-11T12:55:27.733Z,1.82
2022-12-11T12:57:58.521Z,1.82
2022-12-11T13:00:32.268Z,1.83
2022-12-11T13:03:03.639Z,1.81
2022-12-11T13:05:35.156Z,1.81
2022-12-11T13:08:06.025Z,1.84
2022-12-11T13:10:38.737Z,1.84
2022-12-11T13:13:27.168Z,1.82
2022-12-11T13:15:54.721Z,1.84
2022-12-11T13:18:38.250Z,1.84
2022-12-11T13:21:40.409Z,1.84
2022-12-11T13:24:14.163Z,1.89
2022-12-11T13:26:42.681Z,2.01
2022-12-11T13:29:29.377Z,1.93
2022-12-11T13:32:03.981Z,1.89
2022-12-11T13:34:38.776Z,1.84
2022-12-11T13:37:09.077Z,1.81
2022-12-11T13:39:40.098Z,1.80
2022-12-11T13:42:21.390Z,1.80
2022-12-11T13:44:50.356Z,1.77
2022-12-11T13:47:20.406Z,1.77
2022-12-11T13:49:54.808Z,1.76
2022-12-11T13:52:25.882Z,1.74
2022-12-11T13:54:55.716Z,1.74
2022-12-11T13:57:26.170Z,1.70
2022-12-11T13:59:55.865Z,1.70
2022-12-11T14:02:42.530Z,1.70
2022-12-11T14:05:12.664Z,1.67
2022-12-11T14:07:48.033Z,1.68
2022-12-11T14:10:21.556Z,1.65
2022-12-11T14:13:02.769Z,1.64
2022-12-11T14:15:32.996Z,1.61
2022-12-11T14:18:01.822Z,1.59
2022-12-11T14:20:32.368Z,1.54
2022-12-11T14:23:09.289Z,1.49
2022-12-11T14:25:36.778Z,1.48
2022-12-11T14:28:16.539Z,1.50
2022-12-11T14:30:50.941Z,1.47
2022-12-11T14:33:25.626Z,1.64
2022-12-11T14:35:55.302Z,1.61
2022-12-11T14:38:36.126Z,1.54
2022-12-11T14:41:15.363Z,1.44
2022-12-11T14:43:49.395Z,1.38
2022-12-11T14:46:23.283Z,1.31
2022-12-11T14:49:01.101Z,1.29
2022-12-11T14:51:35.254Z,1.23
2022-12-11T14:54:04.523Z,1.18
2022-12-11T14:56:32.879Z,1.11
2022-12-11T14:59:10.108Z,1.06
2022-12-11T15:01:39.227Z,1.02
2022-12-11T15:04:15.672Z,1.02
2022-12-11T15:06:49.083Z,0.99
2022-12-11T15:09:29.730Z,0.98
2022-12-11T15:12:00.470Z,0.96
2022-12-11T15:14:29.598Z,0.96
2022-12-11T15:16:58.600Z,0.99
2022-12-11T15:19:33.750Z,0.97
2022-12-11T15:22:07.538Z,0.96
2022-12-11T15:24:43.264Z,0.95
2022-12-11T15:27:24.229Z,0.90
2022-12-11T15:29:51.897Z,0.91
2022-12-11T15:32:21.689Z,0.90
2022-12-11T15:34:53.783Z,0.86
2022-12-11T15:37:30.149Z,0.85
2022-12-11T15:40:00.504Z,0.84
2022-12-11T15:42:35.435Z,0.82
2022-12-11T15:45:03.876Z,0.82
2022-12-11T15:47:32.690Z,0.82
2022-12-11T15:50:03.326Z,0.79
2022-12-11T15:52:31.050Z,0.80
2022-12-11T15:55:01.013Z,0.80
2022-12-11T15:57:28.626Z,0.80
2022-12-11T15:59:56.445Z,0.79
2022-12-11T16:02:26.741Z,0.79
2022-12-11T16:04:55.261Z,0.78
2022-12-11T16:07:25.391Z,0.78
2022-12-11T16:09:53.829Z,0.75
2022-12-11T16:12:21.597Z,0.78
2022-12-11T16:14:49.188Z,0.77
2022-12-11T16:17:17.091Z,0.75
2022-12-11T16:19:45.341Z,0.75
2022-12-11T16:22:15.289Z,0.74
2022-12-11T16:24:43.116Z,0.73
2022-12-11T16:27:11.094Z,0.73
2022-12-11T16:29:40.978Z,0.71
2022-12-11T16:32:09.868Z,0.72
2022-12-11T16:34:40.028Z,0.69
2022-12-11T16:37:09.073Z,0.69
2022-12-11T16:39:39.842Z,0.69
2022-12-11T16:42:08.667Z,0.67
2022-12-11T16:44:39.657Z,0.67
2022-12-11T16:47:13.721Z,0.65
2022-12-11T16:49:42.038Z,0.66
2022-12-11T16:52:11.343Z,0.63
2022-12-11T16:54:40.203Z,0.58
2022-12-11T16:57:09.947Z,0.60
2022-12-11T16:59:37.901Z,0.60
2022-12-11T17:02:10.005Z,0.58
2022-12-11T17:04:40.202Z,0.57
2022-12-11T17:07:08.345Z,0.50
2022-12-11T17:09:36.360Z,0.53
2022-12-11T17:12:04.278Z,0.51
2022-12-11T17:14:32.339Z,0.50
2022-12-11T17:16:59.956Z,0.51
2022-12-11T17:19:27.668Z,0.50
2022-12-11T17:21:56.095Z,0.51
2022-12-11T17:24:23.728Z,0.50
2022-12-11T17:26:51.300Z,0.51
2022-12-11T17:29:20.028Z,0.52
2022-12-11T17:31:48.471Z,0.50
2022-12-11T17:34:16.989Z,0.53
2022-12-11T17:36:46.491Z,0.52
2022-12-11T17:39:14.105Z,0.50
2022-12-11T17:41:41.638Z,0.48
2022-12-11T17:44:09.606Z,0.49
2022-12-11T17:46:37.231Z,0.47
2022-12-11T17:49:06.289Z,0.46
2022-12-11T17:51:34.022Z,0.45
2022-12-11T17:54:01.863Z,0.45
2022-12-11T17:56:29.420Z,0.45
2022-12-11T17:58:57.024Z,0.44
2022-12-11T18:01:26.788Z,0.44
2022-12-11T18:03:56.808Z,0.42
2022-12-11T18:06:24.659Z,0.42
2022-12-11T18:08:54.764Z,0.40
2022-12-11T18:11:22.768Z,0.41
2022-12-11T18:13:51.276Z,0.40
2022-12-11T18:16:19.282Z,0.39
2022-12-11T18:18:48.283Z,0.39
2022-12-11T18:21:22.560Z,0.40
2022-12-11T18:23:51.083Z,0.39
2022-12-11T18:26:20.011Z,0.37
2022-12-11T18:28:48.932Z,0.38
2022-12-11T18:31:19.492Z,0.38
2022-12-11T18:33:50.521Z,0.36
2022-12-11T18:36:19.594Z,0.36
2022-12-11T18:38:48.096Z,0.35
2022-12-11T18:41:18.640Z,0.34
2022-12-11T18:43:46.389Z,0.33
2022-12-11T18:46:17.022Z,0.34
2022-12-11T18:48:45.765Z,0.34
2022-12-11T18:51:17.228Z,0.32
2022-12-11T18:53:45.273Z,0.32
2022-12-11T18:56:16.028Z,0.32
2022-12-11T18:58:48.736Z,0.30
2022-12-11T19:01:22.981Z,0.31
2022-12-11T19:03:51.493Z,0.27
2022-12-11T19:06:28.601Z,0.29
2022-12-11T19:08:58.459Z,0.28
2022-12-11T19:11:28.400Z,0.26
2022-12-11T19:13:58.988Z,0.26
2022-12-11T19:16:30.650Z,0.26
2022-12-11T19:19:03.552Z,0.26
2022-12-11T19:21:32.009Z,0.28
2022-12-11T19:24:00.286Z,0.26
2022-12-11T19:26:28.005Z,0.25
2022-12-11T19:29:00.056Z,0.25
2022-12-11T19:31:32.523Z,0.26
2022-12-11T19:34:01.025Z,0.24
2022-12-11T19:36:30.416Z,0.23
2022-12-11T19:39:01.935Z,0.22
2022-12-11T19:41:31.369Z,0.19
2022-12-11T19:44:00.068Z,0.20
2022-12-11T19:46:30.732Z,0.18
2022-12-11T19:48:59.842Z,0.18
2022-12-11T19:51:40.960Z,0.16
2022-12-11T19:54:12.394Z,0.16
2022-12-11T19:56:39.985Z,0.09
2022-12-11T19:59:10.822Z,0.13
2022-12-11T20:01:39.141Z,0.13
2022-12-11T20:04:15.204Z,0.14
2022-12-11T20:06:45.613Z,0.12
2022-12-11T20:09:14.234Z,0.11
2022-12-11T20:11:44.339Z,0.12
2022-12-11T20:14:24.073Z,0.10
2022-12-11T20:19:40.493Z,0.02
2022-12-11T20:22:11.146Z,-0.01
2022-12-11T20:24:38.703Z,-0.05
2022-12-11T20:27:06.246Z,-0.04
2022-12-11T20:29:34.035Z,0.00
2022-12-11T20:32:03.885Z,-0.05
2022-12-11T20:34:34.009Z,-0.06
2022-12-11T20:37:01.565Z,-0.07
2022-12-11T20:39:29.125Z,-0.14
2022-12-11T20:41:56.654Z,-0.07
2022-12-11T20:44:24.135Z,-0.10
2022-12-11T20:46:51.808Z,-0.11
2022-12-11T20:49:19.615Z,-0.12
2022-12-11T20:51:51.704Z,-0.12
2022-12-11T20:54:19.249Z,-0.13
2022-12-11T20:56:46.982Z,-0.20
2022-12-11T20:59:17.049Z,-0.14
2022-12-11T21:01:45.225Z,-0.16
2022-12-11T21:04:12.882Z,-0.18
2022-12-11T21:06:42.006Z,-0.19
2022-12-11T21:09:15.708Z,-0.20
2022-12-11T21:11:43.233Z,-0.22
2022-12-11T21:14:11.405Z,-0.28
2022-12-11T21:16:41.806Z,-0.29
2022-12-11T21:19:15.119Z,-0.28
2022-12-11T21:21:45.213Z,-0.29
2022-12-11T21:24:19.161Z,-0.31
2022-12-11T21:26:47.568Z,-0.30
2022-12-11T21:29:15.840Z,-0.31
2022-12-11T21:31:44.488Z,-0.33
2022-12-11T21:34:12.113Z,-0.32
2022-12-11T21:36:41.772Z,-0.37
2022-12-11T21:39:13.013Z,-0.35
2022-12-11T21:41:41.908Z,-0.37
2022-12-11T21:46:57.409Z,-0.45
2022-12-11T21:49:24.949Z,-0.45
2022-12-11T21:51:54.836Z,-0.50
2022-12-11T21:54:22.346Z,-0.50
2022-12-11T21:56:52.168Z,-0.52
2022-12-11T21:59:19.705Z,-0.54
2022-12-11T22:01:47.788Z,-0.55
2022-12-11T22:04:18.849Z,-0.57
2022-12-11T22:06:47.080Z,-0.55
2022-12-11T22:09:17.820Z,-0.63
2022-12-11T22:11:52.514Z,-0.56
2022-12-11T22:14:22.682Z,-0.55
2022-12-11T22:16:52.763Z,-0.55
2022-12-11T22:19:20.304Z,-0.59
2022-12-11T22:21:48.041Z,-0.64
2022-12-11T22:24:15.599Z,-0.72
2022-12-11T22:26:43.144Z,-0.73
2022-12-11T22:29:10.890Z,-0.79
2022-12-11T22:31:38.429Z,-0.86
2022-12-11T22:34:06.037Z,-0.88
2022-12-11T22:36:35.780Z,-0.89
2022-12-11T22:39:03.283Z,-0.91
2022-12-11T22:41:33.184Z,-0.89
2022-12-11T22:44:01.182Z,-0.91
2022-12-11T22:46:31.056Z,-0.90
2022-12-11T22:48:59.871Z,-0.93
2022-12-11T22:51:27.442Z,-0.94
2022-12-11T22:53:56.102Z,-0.98
2022-12-11T22:56:23.656Z,-0.96
2022-12-11T22:58:53.812Z,-0.97
2022-12-11T23:01:23.560Z,-0.95
2022-12-11T23:03:52.902Z,-0.99
2022-12-11T23:06:25.887Z,-1.06
2022-12-11T23:08:57.833Z,-1.04
2022-12-11T23:11:29.076Z,-1.01
2022-12-11T23:14:01.575Z,-1.04
2022-12-11T23:16:29.499Z,-1.07
2022-12-11T23:18:58.661Z,-1.07
2022-12-11T23:21:27.893Z,-1.08
2022-12-11T23:23:56.211Z,-1.11
2022-12-11T23:26:24.565Z,-1.13
2022-12-11T23:28:54.800Z,-1.23
2022-12-11T23:31:22.919Z,-1.21
2022-12-11T23:33:50.656Z,-1.20
2022-12-11T23:36:18.789Z,-1.21
2022-12-11T23:38:51.050Z,-1.20
2022-12-11T23:41:22.073Z,-1.22
2022-12-11T23:43:49.569Z,-1.22
2022-12-11T23:46:23.491Z,-1.24
2022-12-11T23:48:55.615Z,-1.23
2022-12-11T23:51:24.792Z,-1.20
2022-12-11T23:53:53.082Z,-1.20
2022-12-11T23:56:24.476Z,-1.22
2022-12-11T23:58:52.668Z,-1.19
